Acushnet, MA

7:50 AM EDT on September 30, 2014 (GMT -0400)
Pine Hill Acres | Change Station
CLOSE
Current Station
Personal Weather Station
Location: New Bedford, MA
Elevation: 99 ft
Nearby Weather Stations

Elev 99 ft 41.71 °N, 70.95 °W | Updated 7 seconds ago

Overcast
Overcast
57.5 °F
Feels Like 57.5 °F
N
0.0
Wind Variable Wind from NE
Gusts 3.0 mph

Today
High -- | Low -- °F
--% Chance of Precip.
Yesterday
High -- | Low -- °F
Precip. -- in
6:39 AM 6:27 PM
Waxing Crescent, 36% visible
Pressure 30.01 in
Visibility 10.0 miles
Clouds Overcast 500 ft
Dew Point 57 °F
Humidity 97%
Rainfall 0.00 in
Snow Depth Not available.
UV 0 out of 12
Pollen .40 out of 12
Air Quality Not available.
Flu Activity Not available.
METAR KEWB 301053Z 01004KT 10SM OVC005 14/13 A3000 RMK AO2 SLP160 T01440133

More Conditions Fewer Conditions

Pressure 30.01 in
Visibility 10.0 miles
Clouds Overcast 500 ft
Dew Point 57 °F
Humidity 97%
Rainfall 0.00 in
Snow Depth Not available.
UV 0 out of 12
Pollen .40 out of 12
Air Quality Not available.
Flu Activity Not available.
METAR KEWB 301053Z 01004KT 10SM OVC005 14/13 A3000 RMK AO2 SLP160 T01440133

More Conditions Fewer Conditions

10-Day Weather Forecast

Almanac

Astronomy

Sep. 30, 2014 Rise Set
Actual Time 6:39 AM EDT 6:27 PM EDT
Civil Twilight 6:11 AM EDT 6:54 PM EDT
Nautical Twilight 5:39 AM EDT 7:26 PM EDT
Astronomical Twilight 5:06 AM EDT 7:59 PM EDT
Moon 12:48 PM EDT 10:50 PM EDT
Length of Visible Light 12h 43m
Length of Day
11h 47m
Tomorrow will be 2m 46s shorter.
Waxing Crescent, 36% of the Moon is Illuminated
Today
Waxing Crescent
Oct 1
First Quarter
Oct 8
Full
Oct 15
Last Quarter
Oct 23
New

Today's Extremes

State Highs State Lows

Community

WunderPhotos

Upload Photos

1,757,618 photos uploaded!

Nearby

Air Quality

  Air Quality AQ Index Pollutant
Yesterday Moderate
PM2.5
Yesterday Good
OZONE
Tuesday Good
PM2.5
Tuesday Good
OZONE

Snow Depth

Station Depth Elevation
No new snow has been reported.

Earthquake Activity

City Distance Mag. Time & Date
No recent earthquake activity has been reported nearby.
Minimum magnitude displayed is 2.5.

Coastal Water Temperatures

Place Temperature
Woods Hole, MA 66.9 °F
Fall River, MA 68.0 °F
Newport, RI 66.0 °F

Nearby Weather Stations